createdAt,value
2019-05-17T00:01:52.516Z,0.50
2019-05-17T00:04:27.008Z,0.40
2019-05-17T00:07:00.059Z,0.40
2019-05-17T00:09:32.519Z,0.50
2019-05-17T00:12:07.284Z,0.40
2019-05-17T00:14:38.962Z,0.40
2019-05-17T00:17:11.892Z,0.50
2019-05-17T00:19:46.371Z,0.50
2019-05-17T00:22:19.013Z,0.50
2019-05-17T00:24:53.854Z,0.40
2019-05-17T00:27:27.000Z,0.40
2019-05-17T00:29:59.510Z,0.40
2019-05-17T00:32:32.215Z,0.40
2019-05-17T00:35:07.365Z,0.40
2019-05-17T00:37:40.004Z,0.40
2019-05-17T00:40:16.381Z,0.40
2019-05-17T00:42:48.239Z,0.50
2019-05-17T00:45:20.970Z,0.50
2019-05-17T00:47:53.540Z,0.40
2019-05-17T00:50:27.533Z,0.50
2019-05-17T00:53:00.853Z,0.50
2019-05-17T00:55:33.259Z,0.50
2019-05-17T00:58:06.716Z,0.40
2019-05-17T01:00:40.170Z,0.40
2019-05-17T01:03:12.592Z,0.43
2019-05-17T01:05:47.192Z,0.40
2019-05-17T01:08:19.533Z,0.40
2019-05-17T01:10:52.660Z,0.40
2019-05-17T01:13:26.711Z,0.50
2019-05-17T01:15:59.529Z,0.40
2019-05-17T01:18:32.681Z,0.50
2019-05-17T01:21:06.434Z,0.50
2019-05-17T01:23:57.514Z,0.40
2019-05-17T01:26:30.278Z,0.50
2019-05-17T01:29:03.084Z,0.50
2019-05-17T01:31:37.366Z,0.50
2019-05-17T01:34:10.127Z,0.50
2019-05-17T01:36:42.597Z,0.40
2019-05-17T01:39:20.618Z,0.40
2019-05-17T01:41:49.663Z,0.50
2019-05-17T01:44:23.124Z,0.40
2019-05-17T01:46:56.731Z,0.40
2019-05-17T01:49:29.348Z,0.50
2019-05-17T01:52:02.469Z,0.40
2019-05-17T01:54:36.236Z,0.40
2019-05-17T01:57:09.395Z,0.40
2019-05-17T01:59:42.686Z,0.40
2019-05-17T02:02:17.521Z,0.40
2019-05-17T02:04:51.284Z,0.43
2019-05-17T02:07:24.047Z,0.50
2019-05-17T02:09:57.005Z,0.43
2019-05-17T02:12:30.158Z,0.50
2019-05-17T02:15:02.876Z,0.50
2019-05-17T02:17:37.299Z,0.40
2019-05-17T02:20:10.878Z,0.47
2019-05-17T02:22:43.549Z,0.43
2019-05-17T02:25:16.982Z,0.40
2019-05-17T02:27:52.146Z,0.50
2019-05-17T02:30:24.772Z,0.40
2019-05-17T02:32:57.696Z,0.40
2019-05-17T02:35:33.345Z,0.50
2019-05-17T02:38:04.740Z,0.40
2019-05-17T02:40:37.517Z,0.40
2019-05-17T02:43:13.337Z,0.47
2019-05-17T02:45:44.508Z,0.50
2019-05-17T02:48:17.258Z,0.40
2019-05-17T02:50:53.017Z,0.50
2019-05-17T02:53:24.104Z,0.50
2019-05-17T02:55:57.107Z,0.40
2019-05-17T02:58:32.830Z,0.40
2019-05-17T03:01:04.284Z,0.50
2019-05-17T03:03:37.128Z,0.50
2019-05-17T03:06:13.366Z,0.50
2019-05-17T03:08:43.947Z,0.50
2019-05-17T03:11:17.084Z,0.40
2019-05-17T03:13:52.389Z,0.40
2019-05-17T03:16:23.947Z,0.40
2019-05-17T03:18:56.644Z,0.50
2019-05-17T03:21:29.250Z,0.40
2019-05-17T03:24:03.108Z,0.40
2019-05-17T03:26:36.700Z,0.50
2019-05-17T03:29:09.437Z,0.40
2019-05-17T03:31:50.467Z,0.50
2019-05-17T03:34:17.803Z,0.40
2019-05-17T03:36:56.144Z,0.40
2019-05-17T03:39:25.069Z,0.50
2019-05-17T03:41:57.740Z,0.50
2019-05-17T03:44:33.157Z,0.40
2019-05-17T03:47:05.076Z,0.50
2019-05-17T03:49:39.425Z,0.43
2019-05-17T03:52:13.578Z,0.50
2019-05-17T03:54:47.382Z,0.40
2019-05-17T03:57:23.626Z,0.40
2019-05-17T03:59:54.600Z,0.50
2019-05-17T04:02:27.278Z,0.50
2019-05-17T04:04:59.856Z,0.40
2019-05-17T04:07:33.019Z,0.40
2019-05-17T04:10:05.953Z,0.47
2019-05-17T04:12:38.727Z,0.40
2019-05-17T04:15:13.439Z,0.43
2019-05-17T04:17:45.828Z,0.50
2019-05-17T04:20:18.508Z,0.50
2019-05-17T04:22:52.696Z,0.50
2019-05-17T04:25:25.100Z,0.50
2019-05-17T04:27:58.801Z,0.50
2019-05-17T04:30:32.648Z,0.50
2019-05-17T04:33:06.345Z,0.50
2019-05-17T04:35:42.997Z,0.50
2019-05-17T04:38:13.843Z,0.50
2019-05-17T04:40:46.397Z,0.50
2019-05-17T04:43:18.964Z,0.50
2019-05-17T04:45:53.667Z,0.40
2019-05-17T04:48:26.162Z,0.40
2019-05-17T04:50:58.618Z,0.50
2019-05-17T04:53:33.256Z,0.50
2019-05-17T04:56:06.021Z,0.50
2019-05-17T04:58:42.662Z,0.40
2019-05-17T05:01:13.849Z,0.50
2019-05-17T05:03:47.344Z,0.50
2019-05-17T05:06:23.142Z,0.50
2019-05-17T05:08:54.128Z,0.50
2019-05-17T05:11:27.641Z,0.50
2019-05-17T05:14:02.654Z,0.50
2019-05-17T05:16:34.040Z,0.50
2019-05-17T05:19:07.869Z,0.40
2019-05-17T05:21:42.619Z,0.50
2019-05-17T05:24:14.859Z,0.57
2019-05-17T05:26:47.957Z,0.50
2019-05-17T05:29:21.660Z,0.50
2019-05-17T05:31:54.381Z,0.50
2019-05-17T05:34:27.691Z,0.50
2019-05-17T05:37:02.177Z,0.50
2019-05-17T05:39:34.724Z,0.50
2019-05-17T05:42:10.724Z,0.40
2019-05-17T05:44:41.724Z,0.50
2019-05-17T05:47:14.401Z,0.40
2019-05-17T05:49:47.253Z,0.50
2019-05-17T05:52:21.700Z,0.40
2019-05-17T05:54:53.584Z,0.50
2019-05-17T05:57:26.558Z,0.50
2019-05-17T06:00:02.026Z,0.40
2019-05-17T06:02:34.122Z,0.50
2019-05-17T06:05:07.357Z,0.50
2019-05-17T06:07:41.684Z,0.50
2019-05-17T06:10:15.080Z,0.50
2019-05-17T06:12:48.160Z,0.50
2019-05-17T06:15:21.944Z,0.57
2019-05-17T06:17:54.592Z,0.47
2019-05-17T06:20:27.088Z,0.50
2019-05-17T06:23:02.400Z,0.50
2019-05-17T06:25:34.384Z,0.50
2019-05-17T06:28:07.419Z,0.50
2019-05-17T06:30:42.681Z,0.50
2019-05-17T06:33:27.006Z,0.50
2019-05-17T06:35:48.387Z,0.50
2019-05-17T06:38:22.407Z,0.47
2019-05-17T06:40:55.306Z,0.40
2019-05-17T06:43:28.819Z,0.40
2019-05-17T06:46:01.902Z,0.60
2019-05-17T06:48:34.973Z,0.50
2019-05-17T06:51:07.983Z,0.40
2019-05-17T06:53:40.559Z,0.60
2019-05-17T06:56:13.078Z,0.50
2019-05-17T06:58:45.780Z,0.57
2019-05-17T07:01:19.723Z,0.50
2019-05-17T07:03:52.715Z,0.50
2019-05-17T07:06:29.514Z,0.53
2019-05-17T07:09:01.496Z,0.50
2019-05-17T07:11:34.151Z,0.50
2019-05-17T07:14:09.258Z,0.50
2019-05-17T07:16:41.201Z,0.40
2019-05-17T07:19:14.036Z,0.50
2019-05-17T07:21:46.556Z,0.50
2019-05-17T07:24:19.783Z,0.50
2019-05-17T07:26:52.341Z,0.50
2019-05-17T07:29:25.356Z,0.50
2019-05-17T07:32:00.252Z,0.50
2019-05-17T07:34:32.551Z,0.50
2019-05-17T07:37:05.783Z,0.40
2019-05-17T07:39:40.009Z,0.50
2019-05-17T07:42:12.968Z,0.40
2019-05-17T07:44:45.548Z,0.47
2019-05-17T07:47:20.148Z,0.50
2019-05-17T07:49:54.595Z,0.40
2019-05-17T07:52:26.707Z,0.50
2019-05-17T07:55:02.238Z,0.50
2019-05-17T07:57:34.761Z,0.50
2019-05-17T08:00:10.130Z,0.40
2019-05-17T08:02:42.490Z,0.40
2019-05-17T08:05:15.564Z,0.50
2019-05-17T08:07:50.020Z,0.50
2019-05-17T08:10:22.873Z,0.50
2019-05-17T08:12:55.756Z,0.50
2019-05-17T08:15:30.432Z,0.50
2019-05-17T08:18:03.060Z,0.50
2019-05-17T08:20:36.270Z,0.50
2019-05-17T08:23:10.593Z,0.60
2019-05-17T08:25:52.956Z,0.50
2019-05-17T08:28:17.476Z,0.50
2019-05-17T08:30:50.308Z,0.50
2019-05-17T08:33:23.210Z,0.50
2019-05-17T08:35:56.584Z,0.40
2019-05-17T08:38:30.516Z,0.60
2019-05-17T08:41:03.202Z,0.50
2019-05-17T08:43:42.554Z,0.50
2019-05-17T08:46:10.663Z,0.50
2019-05-17T08:48:44.328Z,0.50
2019-05-17T08:51:16.685Z,0.50
2019-05-17T08:53:49.406Z,0.43
2019-05-17T08:56:22.159Z,0.50
2019-05-17T08:58:54.508Z,0.40
2019-05-17T09:01:27.216Z,0.47
2019-05-17T09:04:00.672Z,0.50
2019-05-17T09:06:33.500Z,0.40
2019-05-17T09:09:07.065Z,0.50
2019-05-17T09:11:40.097Z,0.40
2019-05-17T09:14:12.783Z,0.40
2019-05-17T09:16:45.340Z,0.40
2019-05-17T09:19:19.461Z,0.50
2019-05-17T09:21:52.541Z,0.40
2019-05-17T09:24:25.335Z,0.40
2019-05-17T09:26:59.807Z,0.50
2019-05-17T09:29:32.412Z,0.30
2019-05-17T09:32:04.923Z,0.37
2019-05-17T09:34:37.685Z,0.40
2019-05-17T09:37:10.483Z,0.40
2019-05-17T09:39:43.153Z,0.40
2019-05-17T09:42:16.399Z,0.40
2019-05-17T09:44:49.687Z,0.50
2019-05-17T09:47:22.551Z,0.40
2019-05-17T09:49:55.968Z,0.40
2019-05-17T09:52:29.322Z,0.40
2019-05-17T09:55:02.468Z,0.40
2019-05-17T09:57:35.455Z,0.40
2019-05-17T10:00:10.048Z,0.30
2019-05-17T10:02:42.999Z,0.40
2019-05-17T10:05:15.993Z,0.40
2019-05-17T10:07:50.459Z,0.40
2019-05-17T10:10:23.005Z,0.40
2019-05-17T10:12:55.460Z,0.30
2019-05-17T10:15:30.113Z,0.40
2019-05-17T10:18:02.458Z,0.40
2019-05-17T10:20:35.000Z,0.40
2019-05-17T10:23:10.174Z,0.40
2019-05-17T10:25:42.051Z,0.40
2019-05-17T10:28:14.920Z,0.50
2019-05-17T10:30:51.938Z,0.40
2019-05-17T10:33:23.153Z,0.40
2019-05-17T10:35:56.818Z,0.40
2019-05-17T10:38:29.972Z,0.40
2019-05-17T10:41:03.232Z,0.40
2019-05-17T10:43:36.633Z,0.40
2019-05-17T10:46:10.568Z,0.40
2019-05-17T10:48:43.425Z,0.40
2019-05-17T10:51:16.351Z,0.40
2019-05-17T10:53:51.302Z,0.40
2019-05-17T10:56:23.736Z,0.40
2019-05-17T10:58:56.976Z,0.40
2019-05-17T11:01:30.533Z,0.50
2019-05-17T11:04:03.127Z,0.50
2019-05-17T11:06:36.483Z,0.50
2019-05-17T11:09:10.399Z,0.40
2019-05-17T11:11:43.383Z,0.30
2019-05-17T11:14:16.099Z,0.40
2019-05-17T11:16:48.860Z,0.40
2019-05-17T11:19:21.957Z,0.30
2019-05-17T11:21:54.781Z,0.40
2019-05-17T11:24:27.806Z,0.40
2019-05-17T11:27:00.688Z,0.40
2019-05-17T11:29:33.906Z,0.50
2019-05-17T11:32:07.545Z,0.30
2019-05-17T11:34:40.774Z,0.40
2019-05-17T11:37:13.658Z,0.40
2019-05-17T11:39:46.339Z,0.40
2019-05-17T11:42:19.123Z,0.40
2019-05-17T11:44:52.119Z,0.40
2019-05-17T11:47:24.651Z,0.40
2019-05-17T11:49:58.285Z,0.40
2019-05-17T11:52:30.613Z,0.40
2019-05-17T11:55:03.335Z,0.40
2019-05-17T11:57:35.927Z,0.37
2019-05-17T12:00:17.458Z,0.50
2019-05-17T12:02:53.748Z,0.40
2019-05-17T12:05:27.025Z,0.50
2019-05-17T12:08:00.048Z,0.30
2019-05-17T12:10:32.957Z,0.40
2019-05-17T12:13:06.238Z,0.50
2019-05-17T12:15:44.864Z,0.30
2019-05-17T12:18:13.105Z,0.40
2019-05-17T12:20:45.863Z,0.30
2019-05-17T12:23:18.484Z,0.40
2019-05-17T12:25:51.426Z,0.40
2019-05-17T12:28:24.078Z,0.40
2019-05-17T12:30:57.533Z,0.50
2019-05-17T12:33:30.227Z,0.40
2019-05-17T12:36:02.847Z,0.40
2019-05-17T12:38:35.588Z,0.40
2019-05-17T12:41:08.020Z,0.30
2019-05-17T12:43:41.215Z,0.37
2019-05-17T12:46:13.939Z,0.40
2019-05-17T12:48:46.918Z,0.40
2019-05-17T12:51:19.703Z,0.30
2019-05-17T12:53:53.098Z,0.30
2019-05-17T12:56:25.560Z,0.30
2019-05-17T12:58:58.457Z,0.37
2019-05-17T13:01:31.512Z,0.30
2019-05-17T13:04:04.127Z,0.37
2019-05-17T13:06:37.178Z,0.30
2019-05-17T13:09:10.816Z,0.30
2019-05-17T13:11:45.189Z,0.30
2019-05-17T13:14:17.578Z,0.30
2019-05-17T13:16:50.288Z,0.40
2019-05-17T13:19:25.208Z,0.40
2019-05-17T13:21:57.420Z,0.30
2019-05-17T13:24:29.970Z,0.40
2019-05-17T13:27:02.623Z,0.30
2019-05-17T13:29:35.225Z,0.40
2019-05-17T13:32:43.984Z,0.30
2019-05-17T13:35:15.301Z,0.30
2019-05-17T13:37:47.580Z,0.30
2019-05-17T13:40:20.018Z,0.30
2019-05-17T13:42:53.234Z,0.40
2019-05-17T13:45:25.708Z,0.30
2019-05-17T13:47:58.391Z,0.30
2019-05-17T13:50:32.158Z,0.30
2019-05-17T13:53:04.604Z,0.30
2019-05-17T13:55:37.520Z,0.40
2019-05-17T13:58:10.756Z,0.40
2019-05-17T14:00:43.434Z,0.30
2019-05-17T14:03:16.324Z,0.30
2019-05-17T14:05:48.888Z,0.40
2019-05-17T14:08:22.180Z,0.30
2019-05-17T14:10:55.228Z,0.30
2019-05-17T14:13:28.293Z,0.30
2019-05-17T14:16:01.317Z,0.20
2019-05-17T14:18:34.356Z,0.30
2019-05-17T14:21:07.047Z,0.30
2019-05-17T14:23:39.601Z,0.30
2019-05-17T14:26:12.093Z,0.30
2019-05-17T14:28:44.472Z,0.33
2019-05-17T14:31:17.544Z,0.30
2019-05-17T14:33:50.245Z,0.30
2019-05-17T14:36:23.147Z,0.40
2019-05-17T14:38:55.764Z,0.30
2019-05-17T14:41:28.859Z,0.40
2019-05-17T14:44:01.612Z,0.30
2019-05-17T14:46:34.221Z,0.33
2019-05-17T14:49:07.265Z,0.30
2019-05-17T14:51:39.918Z,0.30
2019-05-17T14:54:12.840Z,0.30
2019-05-17T14:56:46.073Z,0.30
2019-05-17T14:59:18.604Z,0.30
2019-05-17T15:01:51.079Z,0.30
2019-05-17T15:04:24.461Z,0.40
2019-05-17T15:06:57.280Z,0.30
2019-05-17T15:09:30.047Z,0.30
2019-05-17T15:12:03.293Z,0.30
2019-05-17T15:14:36.464Z,0.30
2019-05-17T15:17:08.846Z,0.30
2019-05-17T15:19:41.733Z,0.30
2019-05-17T15:22:13.965Z,0.30
2019-05-17T15:24:47.146Z,0.30
2019-05-17T15:27:19.779Z,0.30
2019-05-17T15:29:52.646Z,0.30
2019-05-17T15:32:25.798Z,0.30
2019-05-17T15:34:58.725Z,0.30
2019-05-17T15:37:31.670Z,0.40
2019-05-17T15:40:04.325Z,0.30
2019-05-17T15:42:44.311Z,0.20
2019-05-17T15:45:12.506Z,0.30
2019-05-17T15:47:45.396Z,0.33
2019-05-17T15:50:19.106Z,0.30
2019-05-17T15:52:51.989Z,0.20
2019-05-17T15:55:24.837Z,0.30
2019-05-17T15:57:58.539Z,0.30
2019-05-17T16:00:31.059Z,0.30
2019-05-17T16:03:03.818Z,0.30
2019-05-17T16:05:36.663Z,0.30
2019-05-17T16:08:10.089Z,0.40
2019-05-17T16:10:43.370Z,0.37
2019-05-17T16:13:16.155Z,0.30
2019-05-17T16:15:48.982Z,0.30
2019-05-17T16:18:21.985Z,0.30
2019-05-17T16:20:54.948Z,0.30
2019-05-17T16:23:28.216Z,0.30
2019-05-17T16:26:00.915Z,0.30
2019-05-17T16:28:33.909Z,0.33
2019-05-17T16:31:06.954Z,0.30
2019-05-17T16:33:40.617Z,0.30
2019-05-17T16:36:13.889Z,0.30
2019-05-17T16:38:46.128Z,0.20
2019-05-17T16:41:18.756Z,0.30
2019-05-17T16:43:51.316Z,0.30
2019-05-17T16:46:24.058Z,0.30
2019-05-17T16:48:56.776Z,0.20
2019-05-17T16:51:29.457Z,0.30
2019-05-17T16:54:01.913Z,0.30
2019-05-17T16:56:35.140Z,0.30
2019-05-17T16:59:07.912Z,0.20
2019-05-17T17:01:41.000Z,0.30
2019-05-17T17:04:13.868Z,0.30
2019-05-17T17:06:47.123Z,0.20
2019-05-17T17:09:19.881Z,0.30
2019-05-17T17:11:53.418Z,0.30
2019-05-17T17:14:26.272Z,0.30
2019-05-17T17:16:59.533Z,0.30
2019-05-17T17:19:32.051Z,0.30
2019-05-17T17:22:04.829Z,0.20
2019-05-17T17:24:37.979Z,0.30
2019-05-17T17:27:10.889Z,0.30
2019-05-17T17:29:43.145Z,0.30
2019-05-17T17:32:21.570Z,0.33
2019-05-17T17:34:50.440Z,0.30
2019-05-17T17:37:23.221Z,0.30
2019-05-17T17:39:55.669Z,0.30
2019-05-17T17:42:28.544Z,0.30
2019-05-17T17:45:01.431Z,0.27
2019-05-17T17:47:34.365Z,0.30
2019-05-17T17:50:07.444Z,0.30
2019-05-17T17:52:40.324Z,0.40
2019-05-17T17:55:13.277Z,0.30
2019-05-17T17:57:48.684Z,0.30
2019-05-17T18:00:23.020Z,0.30
2019-05-17T18:02:55.971Z,0.30
2019-05-17T18:05:29.189Z,0.30
2019-05-17T18:08:02.144Z,0.30
2019-05-17T18:10:36.168Z,0.33
2019-05-17T18:13:09.240Z,0.30
2019-05-17T18:15:45.861Z,0.30
2019-05-17T18:18:18.984Z,0.30
2019-05-17T18:20:51.787Z,0.30
2019-05-17T18:23:24.227Z,0.30
2019-05-17T18:25:57.348Z,0.40
2019-05-17T18:28:29.909Z,0.30
2019-05-17T18:31:02.458Z,0.30
2019-05-17T18:33:35.601Z,0.30
2019-05-17T18:36:08.682Z,0.30
2019-05-17T18:38:41.573Z,0.30
2019-05-17T18:41:14.272Z,0.30
2019-05-17T18:43:46.723Z,0.30
2019-05-17T18:46:19.425Z,0.30
2019-05-17T18:48:52.083Z,0.30
2019-05-17T18:51:24.638Z,0.20
2019-05-17T18:53:58.323Z,0.30
2019-05-17T18:56:30.959Z,0.30
2019-05-17T18:59:04.119Z,0.30
2019-05-17T19:01:37.377Z,0.30
2019-05-17T19:04:09.992Z,0.30
2019-05-17T19:06:42.238Z,0.30
2019-05-17T19:09:14.834Z,0.30
2019-05-17T19:11:47.551Z,0.30
2019-05-17T19:14:20.243Z,0.30
2019-05-17T19:16:53.160Z,0.23
2019-05-17T19:19:25.689Z,0.20
2019-05-17T19:21:58.562Z,0.30
2019-05-17T19:24:31.232Z,0.30
2019-05-17T19:27:04.121Z,0.30
2019-05-17T19:29:36.905Z,0.30
2019-05-17T19:32:10.018Z,0.30
2019-05-17T19:34:42.656Z,0.30
2019-05-17T19:37:15.083Z,0.30
2019-05-17T19:39:48.150Z,0.23
2019-05-17T19:42:23.194Z,0.30
2019-05-17T19:44:59.284Z,0.30
2019-05-17T19:47:28.740Z,0.30
2019-05-17T19:50:01.556Z,0.30
2019-05-17T19:52:34.299Z,0.30
2019-05-17T19:55:07.084Z,0.40
2019-05-17T19:57:39.871Z,0.30
2019-05-17T20:00:13.525Z,0.30
2019-05-17T20:02:46.424Z,0.40
2019-05-17T20:05:19.458Z,0.30
2019-05-17T20:07:52.041Z,0.40
2019-05-17T20:10:25.429Z,0.40
2019-05-17T20:12:57.914Z,0.40
2019-05-17T20:15:34.376Z,0.33
2019-05-17T20:18:04.618Z,0.30
2019-05-17T20:20:37.580Z,0.30
2019-05-17T20:23:10.652Z,0.30
2019-05-17T20:25:43.651Z,0.30
2019-05-17T20:28:16.933Z,0.40
2019-05-17T20:30:49.928Z,0.30
2019-05-17T20:33:22.305Z,0.40
2019-05-17T20:35:55.381Z,0.43
2019-05-17T20:38:28.263Z,0.30
2019-05-17T20:41:01.252Z,0.30
2019-05-17T20:43:33.516Z,0.33
2019-05-17T20:46:06.615Z,0.30
2019-05-17T20:48:39.525Z,0.40
2019-05-17T20:51:12.367Z,0.30
2019-05-17T20:53:45.639Z,0.30
2019-05-17T20:56:31.953Z,0.30
2019-05-17T20:58:52.475Z,0.30
2019-05-17T21:01:25.048Z,0.40
2019-05-17T21:03:58.236Z,0.40
2019-05-17T21:06:30.807Z,0.40
2019-05-17T21:09:04.148Z,0.40
2019-05-17T21:11:37.367Z,0.40
2019-05-17T21:14:10.363Z,0.30
2019-05-17T21:16:43.187Z,0.30
2019-05-17T21:19:19.851Z,0.30
2019-05-17T21:21:52.872Z,0.40
2019-05-17T21:24:25.516Z,0.40
2019-05-17T21:26:57.993Z,0.40
2019-05-17T21:29:30.672Z,0.40
2019-05-17T21:32:03.447Z,0.40
2019-05-17T21:34:36.911Z,0.50
2019-05-17T21:37:09.774Z,0.30
2019-05-17T21:39:42.766Z,0.33
2019-05-17T21:42:15.490Z,0.40
2019-05-17T21:44:47.976Z,0.30
2019-05-17T21:47:20.658Z,0.30
2019-05-17T21:49:53.435Z,0.40
2019-05-17T21:52:27.067Z,0.30
2019-05-17T21:54:59.968Z,0.40
2019-05-17T21:57:32.601Z,0.40
2019-05-17T22:00:06.721Z,0.40
2019-05-17T22:02:39.594Z,0.40
2019-05-17T22:05:12.895Z,0.33
2019-05-17T22:07:45.439Z,0.40
2019-05-17T22:10:18.732Z,0.40
2019-05-17T22:12:51.549Z,0.40
2019-05-17T22:15:24.502Z,0.40
2019-05-17T22:17:57.215Z,0.40
2019-05-17T22:20:30.126Z,0.40
2019-05-17T22:23:02.945Z,0.40
2019-05-17T22:25:35.318Z,0.37
2019-05-17T22:28:08.856Z,0.40
2019-05-17T22:30:41.635Z,0.40
2019-05-17T22:33:14.519Z,0.40
2019-05-17T22:35:46.897Z,0.47
2019-05-17T22:38:20.170Z,0.40
2019-05-17T22:40:52.665Z,0.30
2019-05-17T22:43:25.343Z,0.40
2019-05-17T22:45:57.912Z,0.40
2019-05-17T22:48:31.628Z,0.40
2019-05-17T22:51:04.821Z,0.40
2019-05-17T22:53:37.597Z,0.30
2019-05-17T22:56:10.164Z,0.40
2019-05-17T22:58:42.611Z,0.40
2019-05-17T23:01:15.195Z,0.40
2019-05-17T23:03:48.011Z,0.40
2019-05-17T23:06:20.891Z,0.40
2019-05-17T23:08:54.156Z,0.40
2019-05-17T23:11:27.275Z,0.40
2019-05-17T23:14:00.087Z,0.40
2019-05-17T23:16:33.768Z,0.40
2019-05-17T23:19:11.111Z,0.40
2019-05-17T23:21:44.201Z,0.40
2019-05-17T23:24:16.924Z,0.50
2019-05-17T23:26:50.339Z,0.40
2019-05-17T23:29:23.038Z,0.40
2019-05-17T23:31:56.614Z,0.40
2019-05-17T23:34:29.895Z,0.40
2019-05-17T23:37:07.460Z,0.40
2019-05-17T23:39:41.607Z,0.40
2019-05-17T23:42:14.813Z,0.40
2019-05-17T23:44:47.331Z,0.40
2019-05-17T23:47:19.892Z,0.50
2019-05-17T23:49:53.473Z,0.47
2019-05-17T23:52:27.980Z,0.40
2019-05-17T23:55:04.072Z,0.50
2019-05-17T23:57:37.456Z,0.50
